KOLY

Olney-Noble Airport

Olney-Noble, Illinois, USA
METAR KOLY 212135Z AUTO 01004KT 10SM SCT030 SCT035 25/22 A2970 RMK AO2 LTG DSNT E T02480222
Observed Flight Rules
Jun-21 @ 21:35 UTC (29 minutes ago) Visual Flight Rules
Wind Visibility Clouds
10° at 4 knots 10 miles
  • Scattered at 3,000' AGL
  • Scattered at 3,500' AGL
Temperatures Readings
Current 25°C / 77°F
Dewpoint 22°C / 72°F
Humidity 83%
Altimeter 29.7" Hg
Pressure 1006 hPa
Elevation 147
METAR KOLY 212135Z AUTO 01004KT 10SM SCT030 SCT035 25/22 A2970 RMK AO2 LTG DSNT E T02480222
Observed Flight Rules
Jun-21 @ 21:35 UTC
(29 minutes ago)
VFR
Wind Visibility
10° at 4 knots 10 miles
Clouds
  • Scattered at 3,000' AGL
  • Scattered at 3,500' AGL
Temperature Dewpoint
25°C / 77°F 22°C / 72°F
Humidity Altimeter Pressure
83% 29.7" Hg 1006 hPa